Greendale, NY

12:19 PM EST on December 07, 2016 (GMT -0500)
Columbia-Greene Community College | | Change Station

Elev 161 ft 42.22 °N, 73.83 °W | Updated 10 seconds ago

Overcast
Overcast
35.0 °F
Feels Like 35.0 °F
N
3.0
Wind Variable Wind from WNW
Gusts 4.0 mph

Today
High -- | Low -- °F
--% Chance of Precip.
Yesterday
High -- | Low -- °F
Precip. -- in
Pressure 29.93 in
Visibility 10.0 miles
Clouds Overcast 600 ft
Dew Point 35.0 °F
Humidity 100%
Rainfall 0.18 in
Snow Depth Not available.
7:10 AM 4:23 PM
First Quarter, 54% visible
METAR KPSF 071654Z AUTO 00000KT 10SM OVC006 01/01 A2990 RMK AO2 SLP134 T00110006
Pressure 29.93 in
Visibility 10.0 miles
Clouds Overcast 600 ft
Dew Point 35.0 °F
Humidity 100%
Rainfall 0.18 in
Snow Depth Not available.
7:10 AM 4:23 PM
First Quarter, 54% visible
METAR KPSF 071654Z AUTO 00000KT 10SM OVC006 01/01 A2990 RMK AO2 SLP134 T00110006

10-Day Weather Forecast

Almanac

Astronomy

Dec. 07, 2016 Rise Set
Actual Time
Civil Twilight
Nautical Twilight
Astronomical Twilight
Moon
Length of Visible Light
Length of Day
Tomorrow will be .
, % of the Moon is Illuminated

Today's Extremes

State Highs State Lows

Community

WunderPhotos

Upload Photos

1,956,151 photos uploaded!

WunderBlog® & News

Nearby

Air Quality

  Air Quality AQ Index Pollutant
Not available.

Snow Depth

Station Depth Elevation

Earthquake Activity

City Distance Mag. Time & Date
Minimum magnitude displayed is 2.5.

Coastal Water Temperatures

Place Temperature

Stations

Nearby Weather Stations

Station Location Temp. Windchill Dew Point Humidity Wind Precip. Elev Updated Type
                   

Watches & Warnings

There are currently no watches in effect.